Time;durP1;ratioP1;P1;durP2;ratioP2;P2;SDS_P1;SDS_P2;PMS_P1;PMS_P2;Temp;Humidity;BMP_temperature;BMP_pressure;BME280_temperature;BME280_humidity;BME280_pressure;Samples;Min_cycle;Max_cycle;Signal;HPM_P1;HPM_P2
2021/05/25 00:00:26;;;;;;;0.20;0.20;;;;;;;22.76;46.63;101509.59;178456;576;47012;-73
2021/05/25 00:03:28;;;;;;;0.09;0.09;;;;;;;22.76;46.04;101499.75;178452;585;46021;-71
2021/05/25 00:06:30;;;;;;;0.10;0.10;;;;;;;22.75;46.71;101494.50;178452;602;46020;-71
2021/05/25 00:09:33;;;;;;;0.21;0.21;;;;;;;22.73;46.27;101491.94;178452;588;46012;-72
2021/05/25 00:12:36;;;;;;;0.40;0.30;;;;;;;22.71;46.24;101482.28;178451;583;47009;-72
2021/05/25 00:15:38;;;;;;;0.18;0.10;;;;;;;22.73;46.63;101483.91;178452;572;46028;-74
2021/05/25 00:18:40;;;;;;;0.18;0.18;;;;;;;22.75;46.04;101473.09;178454;572;46012;-78
2021/05/25 00:21:43;;;;;;;0.10;0.10;;;;;;;22.77;46.21;101479.19;178452;563;46012;-79
2021/05/25 00:24:45;;;;;;;0.10;0.10;;;;;;;22.80;45.96;101473.63;178451;574;46012;-75
2021/05/25 00:27:48;;;;;;;0.20;0.20;;;;;;;22.81;46.30;101473.53;178453;624;46013;-75
2021/05/25 00:30:51;;;;;;;0.10;0.10;;;;;;;22.87;46.02;101471.37;178456;568;45020;-75
2021/05/25 00:33:53;;;;;;;0.08;0.08;;;;;;;22.89;45.89;101467.63;178452;576;46021;-74
2021/05/25 00:36:55;;;;;;;0.10;0.10;;;;;;;22.85;46.01;101459.94;178454;563;46018;-75
2021/05/25 00:39:57;;;;;;;0.44;0.28;;;;;;;22.82;46.01;101456.47;178455;569;46012;-75
2021/05/25 00:42:59;;;;;;;0.10;0.10;;;;;;;22.80;46.13;101457.56;178454;595;46012;-76
2021/05/25 00:46:01;;;;;;;0.10;0.10;;;;;;;22.75;46.54;101447.16;178455;573;46012;-76
2021/05/25 00:49:05;;;;;;;0.18;0.18;;;;;;;22.69;46.28;101447.59;178452;565;46012;-76
2021/05/25 00:52:07;;;;;;;0.00;0.00;;;;;;;22.65;46.39;101446.09;178453;563;46012;-72
2021/05/25 00:55:17;;;;;;;0.10;0.10;;;;;;;22.57;46.23;101441.25;178452;657;46020;-75
2021/05/25 00:58:20;;;;;;;0.20;0.20;;;;;;;22.51;46.29;101438.97;178455;582;46012;-73
2021/05/25 01:01:22;;;;;;;0.20;0.10;;;;;;;22.48;46.25;101442.72;178452;568;46020;-72
2021/05/25 01:04:24;;;;;;;0.22;0.10;;;;;;;22.47;46.36;101438.34;178454;569;47009;-72
2021/05/25 01:07:26;;;;;;;0.10;0.10;;;;;;;22.46;46.57;101439.28;178455;574;46018;-75
2021/05/25 01:10:32;;;;;;;0.10;0.10;;;;;;;22.42;46.37;101437.78;178454;575;46013;-75
2021/05/25 01:17:02;;;;;;;0.01;0.01;;;;;;;22.39;46.60;101459.41;178453;564;46012;-73
2021/05/25 01:20:06;;;;;;;0.00;0.00;;;;;;;22.32;46.58;101436.63;178454;578;45021;-73
2021/05/25 01:23:09;;;;;;;0.10;0.10;;;;;;;22.38;46.65;101449.63;178453;571;46012;-73
2021/05/25 01:26:14;;;;;;;0.04;0.04;;;;;;;22.36;46.68;101445.34;178454;565;46013;-72
2021/05/25 01:29:16;;;;;;;0.30;0.23;;;;;;;22.33;47.07;101448.22;178453;631;46020;-74
2021/05/25 01:32:19;;;;;;;0.23;0.23;;;;;;;22.33;48.03;101442.84;178452;575;46020;-75
2021/05/25 01:35:23;;;;;;;0.10;0.10;;;;;;;22.32;48.49;101450.00;178453;571;47012;-74
2021/05/25 01:38:26;;;;;;;0.13;0.13;;;;;;;22.33;48.68;101449.03;178454;571;46012;-74
2021/05/25 01:41:28;;;;;;;0.20;0.20;;;;;;;22.36;48.52;101451.53;178453;569;46012;-74
2021/05/25 01:44:30;;;;;;;0.30;0.20;;;;;;;22.34;49.41;101444.56;178453;574;46020;-73
2021/05/25 01:47:33;;;;;;;0.05;0.05;;;;;;;22.35;49.13;101443.63;178453;563;45033;-70
2021/05/25 01:50:37;;;;;;;0.22;0.20;;;;;;;22.31;48.79;101446.47;178455;580;46020;-74
2021/05/25 01:53:39;;;;;;;0.10;0.10;;;;;;;22.15;48.84;101424.38;178455;573;46012;-73
2021/05/25 01:56:42;;;;;;;0.39;0.19;;;;;;;22.33;48.64;101440.19;178454;602;46018;-73
2021/05/25 01:59:44;;;;;;;0.00;0.00;;;;;;;22.33;48.24;101441.03;178455;565;46018;-73
2021/05/25 02:02:46;;;;;;;0.10;0.10;;;;;;;22.33;48.35;101443.69;178454;570;46013;-73
2021/05/25 02:05:49;;;;;;;0.10;0.10;;;;;;;22.31;47.73;101446.47;178455;563;47008;-73
2021/05/25 02:08:51;;;;;;;0.10;0.10;;;;;;;22.29;48.02;101443.06;178456;575;46010;-73
2021/05/25 02:11:53;;;;;;;0.21;0.16;;;;;;;22.27;47.31;101444.97;178455;582;46034;-72
2021/05/25 02:14:55;;;;;;;0.10;0.10;;;;;;;22.24;47.80;101449.66;178455;569;46012;-72
2021/05/25 02:18:03;;;;;;;0.10;0.10;;;;;;;22.20;47.35;101443.66;178454;569;46019;-74
2021/05/25 02:21:07;;;;;;;0.10;0.10;;;;;;;22.18;47.72;101452.75;178456;568;46012;-73
2021/05/25 02:24:09;;;;;;;0.00;0.00;;;;;;;22.15;47.52;101454.66;178451;569;46020;-73
2021/05/25 02:27:12;;;;;;;0.15;0.10;;;;;;;22.11;47.22;101452.28;178456;563;46031;-72
2021/05/25 02:30:15;;;;;;;0.56;0.32;;;;;;;22.04;47.23;101442.94;178454;575;46020;-72
2021/05/25 02:33:20;;;;;;;0.10;0.10;;;;;;;21.95;47.58;101439.03;178452;569;46013;-73
2021/05/25 02:36:22;;;;;;;0.10;0.10;;;;;;;21.90;47.40;101441.19;178455;568;46012;-72
2021/05/25 02:39:24;;;;;;;0.74;0.40;;;;;;;21.86;47.45;101447.69;178453;564;46020;-72
2021/05/25 02:42:27;;;;;;;0.20;0.20;;;;;;;21.74;47.72;101444.81;178455;569;46021;-75
2021/05/25 02:45:29;;;;;;;0.10;0.10;;;;;;;21.74;47.70;101446.63;178451;580;46020;-75
2021/05/25 02:48:31;;;;;;;0.10;0.10;;;;;;;21.73;48.24;101448.44;178458;577;46008;-75
2021/05/25 02:51:33;;;;;;;0.20;0.10;;;;;;;21.70;47.76;101459.31;178453;573;45032;-77
2021/05/25 02:54:35;;;;;;;0.10;0.10;;;;;;;21.70;47.99;101461.16;178452;585;46013;-76
2021/05/25 02:57:38;;;;;;;0.29;0.29;;;;;;;21.65;47.85;101464.09;178457;575;46018;-76
2021/05/25 03:00:46;;;;;;;0.20;0.20;;;;;;;21.62;48.04;101459.81;178455;563;46020;-76
2021/05/25 03:03:48;;;;;;;0.13;0.10;;;;;;;21.66;47.63;101473.84;178452;581;46021;-75
2021/05/25 03:06:50;;;;;;;0.11;0.11;;;;;;;21.60;47.93;101471.56;178455;568;46020;-74
2021/05/25 03:09:52;;;;;;;0.30;0.20;;;;;;;21.57;48.08;101479.75;178457;565;46020;-75
2021/05/25 03:12:55;;;;;;;0.19;0.19;;;;;;;21.53;48.04;101483.56;178455;583;46012;-71
2021/05/25 03:15:57;;;;;;;0.07;0.07;;;;;;;21.50;48.38;101489.06;178454;563;46020;-71
2021/05/25 03:18:59;;;;;;;0.17;0.17;;;;;;;21.43;48.11;101483.25;178456;563;46012;-71
2021/05/25 03:22:02;;;;;;;0.20;0.20;;;;;;;21.34;48.40;101475.78;178453;568;46018;-74
2021/05/25 03:25:06;;;;;;;0.20;0.10;;;;;;;21.25;48.99;101467.41;178454;565;46021;-70
2021/05/25 03:28:09;;;;;;;0.24;0.08;;;;;;;21.24;49.05;101478.19;178455;566;47008;-71
2021/05/25 03:31:11;;;;;;;0.10;0.10;;;;;;;21.22;48.32;101478.28;178454;581;46020;-71
2021/05/25 03:34:13;;;;;;;0.03;0.03;;;;;;;21.20;48.62;101469.50;178458;578;45048;-72
2021/05/25 03:37:15;;;;;;;0.10;0.10;;;;;;;21.34;48.51;101484.69;178455;564;46012;-71
2021/05/25 03:40:18;;;;;;;0.16;0.15;;;;;;;21.40;48.51;101483.44;178456;579;46011;-71
2021/05/25 03:43:21;;;;;;;0.50;0.20;;;;;;;21.42;48.56;101478.84;178455;576;46020;-73
2021/05/25 03:46:23;;;;;;;0.04;0.04;;;;;;;21.46;48.65;101483.94;178453;565;46020;-73
2021/05/25 03:49:25;;;;;;;0.20;0.20;;;;;;;21.52;48.49;101468.47;178454;563;46020;-73
2021/05/25 03:52:27;;;;;;;0.00;0.00;;;;;;;21.36;48.59;101449.88;178455;587;46022;-73
2021/05/25 03:55:55;;;;;;;0.10;0.10;;;;;;;21.56;48.97;101473.56;178454;613;46021;-70
2021/05/25 03:58:57;;;;;;;0.10;0.10;;;;;;;21.65;48.39;101477.44;178453;566;46020;-71
2021/05/25 04:01:59;;;;;;;0.20;0.20;;;;;;;21.72;48.95;101481.47;178455;587;46021;-71
2021/05/25 04:05:02;;;;;;;0.10;0.10;;;;;;;21.80;48.97;101479.19;178456;563;46018;-72
2021/05/25 04:08:05;;;;;;;;;;;;;;;21.90;48.83;101490.13;178460;979;46020;-72
2021/05/25 04:11:07;;;;;;;0.29;0.12;;;;;;;21.97;49.39;101494.13;178461;568;45021;-75
2021/05/25 04:14:09;;;;;;;0.14;0.14;;;;;;;22.03;48.88;101500.91;178455;580;46023;-74
2021/05/25 04:17:12;;;;;;;0.10;0.10;;;;;;;22.13;49.37;101502.03;178452;598;46021;-74
2021/05/25 04:20:15;;;;;;;0.30;0.30;;;;;;;22.20;49.81;101498.94;178455;577;46014;-73
2021/05/25 04:23:17;;;;;;;0.00;0.00;;;;;;;22.25;49.27;101487.03;178453;577;46020;-73
2021/05/25 04:26:19;;;;;;;0.21;0.11;;;;;;;22.31;49.35;101493.78;178453;561;46021;-78
2021/05/25 04:29:22;;;;;;;0.10;0.10;;;;;;;22.40;49.75;101487.00;178453;562;46020;-78
2021/05/25 04:32:24;;;;;;;0.44;0.20;;;;;;;22.50;49.18;101476.53;178456;568;46021;-78
2021/05/25 04:35:26;;;;;;;0.20;0.17;;;;;;;22.66;49.35;101482.56;178455;598;46018;-77
2021/05/25 04:38:28;;;;;;;0.44;0.10;;;;;;;22.80;49.07;101477.16;178456;580;46012;-77
2021/05/25 04:41:30;;;;;;;0.40;0.20;;;;;;;22.95;49.17;101482.41;178452;566;47012;-78
2021/05/25 04:44:32;;;;;;;0.90;0.40;;;;;;;23.08;49.43;101475.25;178456;565;46014;-75
2021/05/25 04:47:35;;;;;;;0.19;0.19;;;;;;;23.23;49.07;101477.87;178453;563;46014;-76
2021/05/25 04:50:40;;;;;;;0.10;0.10;;;;;;;23.37;48.67;101476.91;178458;584;45020;-76
2021/05/25 04:53:42;;;;;;;0.40;0.40;;;;;;;23.46;48.56;101479.81;178454;607;46020;-75
2021/05/25 04:56:44;;;;;;;0.10;0.10;;;;;;;23.59;48.81;101478.94;178455;563;46014;-76
2021/05/25 04:59:47;;;;;;;0.90;0.20;;;;;;;23.72;48.36;101476.25;178454;616;46020;-74
2021/05/25 05:02:49;;;;;;;0.10;0.10;;;;;;;23.78;48.79;101478.47;178454;563;46015;-73
2021/05/25 05:05:51;;;;;;;0.06;0.06;;;;;;;23.86;48.81;101480.63;178453;574;46022;-73
2021/05/25 05:08:53;;;;;;;0.19;0.19;;;;;;;23.93;48.52;101479.22;178454;577;46021;-75
2021/05/25 05:11:55;;;;;;;0.20;0.20;;;;;;;24.04;48.10;101491.84;178456;563;47010;-69
2021/05/25 05:14:58;;;;;;;0.09;0.08;;;;;;;24.19;48.39;101496.09;178453;645;46020;-72
2021/05/25 05:18:00;;;;;;;0.20;0.20;;;;;;;24.27;47.72;101493.69;178453;583;46021;-71
2021/05/25 05:21:02;;;;;;;0.13;0.13;;;;;;;24.35;47.87;101501.19;178456;605;46014;-73
2021/05/25 05:24:05;;;;;;;0.10;0.10;;;;;;;24.49;47.24;101503.72;178456;667;46015;-73
2021/05/25 05:27:07;;;;;;;0.10;0.10;;;;;;;24.66;47.71;101493.56;178456;572;46014;-73
2021/05/25 05:30:11;;;;;;;2.15;0.28;;;;;;;24.73;46.55;101499.31;178454;588;45020;-74
2021/05/25 05:33:13;;;;;;;0.08;0.08;;;;;;;24.83;46.74;101494.97;178454;597;46020;-74
2021/05/25 05:36:16;;;;;;;;;;;;;;;24.97;46.78;101499.28;178462;981;46020;-74
2021/05/25 05:39:18;;;;;;;0.13;0.10;;;;;;;25.13;46.44;101496.28;178461;596;46018;-74
2021/05/25 05:42:21;;;;;;;0.20;0.10;;;;;;;25.24;45.80;101487.37;178456;563;46012;-73
2021/05/25 05:45:23;;;;;;;0.00;0.00;;;;;;;25.31;46.08;101493.97;178456;589;46012;-73
2021/05/25 05:48:28;;;;;;;0.10;0.10;;;;;;;25.33;45.07;101497.44;178455;585;47008;-73
2021/05/25 05:51:31;;;;;;;1.22;0.24;;;;;;;25.41;44.77;101492.31;178456;575;47008;-72
2021/05/25 05:54:33;;;;;;;0.30;0.20;;;;;;;25.46;44.71;101498.16;178451;569;46021;-72
2021/05/25 05:57:36;;;;;;;1.60;0.20;;;;;;;25.49;44.24;101497.06;178457;570;46010;-71
2021/05/25 06:00:41;;;;;;;0.26;0.26;;;;;;;25.54;44.33;101488.66;178455;572;46020;-71
2021/05/25 06:03:44;;;;;;;0.48;0.18;;;;;;;25.59;43.90;101491.81;178451;585;46021;-71
2021/05/25 06:06:47;;;;;;;0.20;0.10;;;;;;;25.66;43.53;101487.69;178455;570;46018;-71
2021/05/25 06:09:49;;;;;;;0.50;0.30;;;;;;;25.71;43.70;101477.37;178454;571;47011;-70
2021/05/25 06:12:51;;;;;;;0.26;0.26;;;;;;;25.76;43.20;101482.41;178454;597;46020;-73
2021/05/25 06:15:57;;;;;;;0.10;0.10;;;;;;;25.81;42.99;101481.06;178455;563;46021;-74
2021/05/25 06:18:59;;;;;;;0.10;0.10;;;;;;;25.93;43.42;101481.03;178453;563;46012;-75
2021/05/25 06:22:02;;;;;;;0.09;0.09;;;;;;;26.05;42.98;101480.06;178452;574;46012;-75
2021/05/25 06:25:06;;;;;;;0.10;0.10;;;;;;;26.16;42.31;101479.19;178451;577;46021;-76
2021/05/25 06:28:08;;;;;;;0.46;0.16;;;;;;;26.14;41.90;101482.00;178454;568;46018;-72
2021/05/25 06:31:10;;;;;;;0.50;0.10;;;;;;;26.15;41.79;101483.72;178453;591;46038;-72
2021/05/25 06:34:13;;;;;;;0.20;0.20;;;;;;;26.21;41.51;101476.97;178452;568;46020;-76
2021/05/25 06:37:15;;;;;;;0.19;0.17;;;;;;;26.29;41.44;101468.28;178454;563;46012;-75
2021/05/25 06:40:17;;;;;;;0.30;0.20;;;;;;;26.31;40.48;101469.00;178454;565;46010;-77
2021/05/25 06:43:20;;;;;;;0.30;0.30;;;;;;;26.37;40.27;101468.50;178456;570;45022;-76
2021/05/25 06:46:22;;;;;;;0.37;0.20;;;;;;;26.46;40.49;101465.03;178452;565;46023;-72
2021/05/25 06:49:24;;;;;;;0.10;0.10;;;;;;;26.59;40.46;101464.00;178453;572;46012;-76
2021/05/25 06:52:26;;;;;;;0.30;0.20;;;;;;;26.59;40.45;101458.62;178455;571;46012;-77
2021/05/25 06:55:28;;;;;;;0.10;0.10;;;;;;;26.57;40.64;101458.72;178451;563;46012;-74
2021/05/25 06:58:32;;;;;;;0.21;0.20;;;;;;;26.56;40.33;101459.72;178454;562;47008;-75
2021/05/25 07:01:34;;;;;;;0.30;0.30;;;;;;;26.61;40.83;101456.63;178453;568;46012;-78
2021/05/25 07:04:36;;;;;;;0.27;0.17;;;;;;;26.58;41.27;101451.50;178453;563;46012;-75
2021/05/25 07:07:38;;;;;;;0.30;0.10;;;;;;;26.64;40.92;101465.31;178453;569;46021;-75
2021/05/25 07:10:40;;;;;;;0.21;0.21;;;;;;;26.66;40.49;101459.81;178455;568;46012;-76
2021/05/25 07:13:42;;;;;;;0.10;0.10;;;;;;;26.69;40.55;101459.53;178455;577;46010;-74
2021/05/25 08:45:51;;;;;;;0.10;0.10;;;;;;;25.57;43.14;101516.13;180832;63;69852;-79
2021/05/25 08:48:54;;;;;;;;;;;;;;;25.47;43.32;101516.00;178161;63;65724;-76
2021/05/25 18:49:43;;;;;;;0.13;0.10;;;;;;;23.51;47.06;101213.31;146596;65;202363;-82
2021/05/25 18:52:16;;;;;;;0.10;0.10;;;;;;;23.47;47.09;101196.63;146707;608;46017;-83
2021/05/25 18:54:47;;;;;;;0.00;0.00;;;;;;;23.44;47.35;101203.06;146713;859;46906;-83
2021/05/25 19:00:13;;;;;;;0.00;0.00;;;;;;;23.36;47.53;101202.78;146714;607;46008;-83
2021/05/25 19:02:44;;;;;;;0.57;0.20;;;;;;;23.32;47.47;101209.34;146710;569;46010;-83
2021/05/25 19:05:15;;;;;;;0.10;0.10;;;;;;;23.28;47.67;101216.75;146711;709;46020;-83
2021/05/25 19:07:49;;;;;;;0.28;0.22;;;;;;;23.24;47.67;101215.25;146705;596;46017;-83
2021/05/25 19:10:21;;;;;;;0.00;0.00;;;;;;;23.20;47.69;101210.25;146712;579;46020;-83
2021/05/25 19:12:52;;;;;;;0.13;0.10;;;;;;;23.16;48.23;101212.28;146710;588;46016;-83
2021/05/25 19:15:22;;;;;;;0.10;0.10;;;;;;;23.12;47.91;101216.13;146711;582;46008;-83
2021/05/25 19:17:53;;;;;;;0.00;0.00;;;;;;;22.98;48.29;101207.28;146708;581;46016;-83
2021/05/25 19:20:32;;;;;;;0.20;0.20;;;;;;;23.01;47.81;101219.59;146712;698;46020;-83
2021/05/25 19:26:10;;;;;;;0.20;0.20;;;;;;;22.94;48.30;101212.97;146713;592;46008;-83
2021/05/25 19:28:43;;;;;;;0.22;0.10;;;;;;;22.84;48.07;101203.88;146706;681;46016;-83
2021/05/25 19:31:14;;;;;;;0.10;0.10;;;;;;;22.87;47.77;101209.87;146711;693;46021;-84
2021/05/25 19:33:45;;;;;;;0.10;0.10;;;;;;;22.82;48.23;101214.72;146709;617;46016;-83
2021/05/25 19:36:19;;;;;;;0.10;0.10;;;;;;;22.77;48.35;101212.38;146709;598;46020;-83
2021/05/25 19:38:52;;;;;;;0.08;0.08;;;;;;;22.72;48.33;101206.50;146708;846;46010;-83
2021/05/25 19:41:23;;;;;;;0.10;0.10;;;;;;;22.70;48.42;101207.56;146714;623;46020;-82
2021/05/25 19:43:53;;;;;;;0.00;0.00;;;;;;;22.65;48.38;101208.75;146708;570;46011;-83
2021/05/25 19:46:24;;;;;;;0.20;0.20;;;;;;;22.62;48.33;101213.44;146711;583;47008;-83
2021/05/25 19:48:55;;;;;;;0.17;0.17;;;;;;;22.59;48.26;101214.53;146707;582;46016;-82
2021/05/25 19:51:29;;;;;;;0.28;0.28;;;;;;;22.56;48.45;101213.91;146714;846;47006;-83
2021/05/25 19:54:03;;;;;;;0.10;0.10;;;;;;;22.54;48.20;101222.03;146708;564;46016;-83
2021/05/25 19:56:34;;;;;;;0.20;0.20;;;;;;;22.51;48.58;101213.37;146714;563;45024;-82
2021/05/25 19:59:04;;;;;;;0.10;0.10;;;;;;;22.44;48.07;101215.63;146712;615;46015;-82
2021/05/25 20:01:36;;;;;;;0.10;0.10;;;;;;;22.43;47.96;101219.25;146712;633;46020;-83
2021/05/25 20:04:07;;;;;;;0.10;0.10;;;;;;;22.38;48.34;101221.41;146707;590;46016;-82
2021/05/25 20:06:38;;;;;;;0.10;0.10;;;;;;;22.33;48.16;101221.69;146714;678;46008;-82
2021/05/25 20:09:13;;;;;;;0.00;0.00;;;;;;;22.28;48.46;101222.00;146712;700;46014;-83
2021/05/25 20:11:43;;;;;;;0.17;0.10;;;;;;;22.26;48.42;101223.09;146714;565;47008;-82
2021/05/25 20:14:14;;;;;;;0.30;0.30;;;;;;;22.22;48.75;101218.91;146710;740;46010;-82
2021/05/25 20:16:44;;;;;;;0.10;0.10;;;;;;;22.18;48.45;101217.41;146713;596;46008;-81
2021/05/25 20:19:15;;;;;;;0.30;0.25;;;;;;;22.14;49.14;101217.63;146710;582;46010;-82
2021/05/25 20:21:46;;;;;;;0.00;0.00;;;;;;;22.10;48.64;101208.09;146714;589;46008;-82
2021/05/25 20:24:17;;;;;;;0.10;0.10;;;;;;;22.05;48.38;101204.00;146708;638;46016;-83
2021/05/25 20:26:48;;;;;;;0.28;0.28;;;;;;;22.01;48.73;101206.06;146711;593;45022;-83
2021/05/25 20:29:19;;;;;;;0.00;0.00;;;;;;;21.98;49.32;101203.59;146705;622;46016;-83
2021/05/25 20:31:50;;;;;;;0.10;0.10;;;;;;;21.96;49.12;101213.53;146712;608;46018;-83
2021/05/25 20:39:48;;;;;;;0.10;0.10;;;;;;;21.91;48.42;101208.50;146708;618;47010;-82
2021/05/25 20:42:19;;;;;;;0.10;0.10;;;;;;;21.93;48.35;101213.75;146710;609;46020;-83
2021/05/25 20:44:51;;;;;;;0.10;0.10;;;;;;;21.91;48.31;101218.31;146706;624;46017;-82
2021/05/25 20:47:21;;;;;;;0.03;0.03;;;;;;;21.89;48.83;101230.97;146711;646;46020;-83
2021/05/25 20:49:54;;;;;;;0.15;0.15;;;;;;;21.87;48.77;101222.16;146709;576;46016;-82
2021/05/25 20:52:26;;;;;;;0.10;0.10;;;;;;;21.84;48.50;101230.41;146709;617;47021;-82
2021/05/25 20:54:57;;;;;;;0.10;0.10;;;;;;;21.80;48.30;101224.41;146708;575;46016;-83
2021/05/25 20:57:28;;;;;;;0.10;0.10;;;;;;;21.77;48.42;101222.81;146714;638;45020;-83
2021/05/25 20:59:59;;;;;;;0.00;0.00;;;;;;;21.75;48.53;101219.38;146707;612;46016;-82
2021/05/25 21:02:29;;;;;;;0.20;0.20;;;;;;;21.72;48.33;101219.59;146712;592;47008;-83
2021/05/25 21:05:00;;;;;;;0.10;0.10;;;;;;;21.69;48.31;101214.41;146710;569;46014;-83
2021/05/25 21:07:30;;;;;;;0.10;0.10;;;;;;;21.66;48.47;101209.28;146713;559;45021;-83
2021/05/25 21:10:01;;;;;;;0.32;0.10;;;;;;;21.63;48.48;101207.69;146707;605;47018;-83
2021/05/25 21:12:32;;;;;;;0.10;0.10;;;;;;;21.58;48.87;101211.62;146716;577;45050;-82
2021/05/25 21:15:08;;;;;;;0.10;0.10;;;;;;;21.60;48.34;101205.22;146708;594;47010;-84
2021/05/25 21:17:38;;;;;;;0.00;0.00;;;;;;;21.58;48.92;101209.81;146714;569;45906;-83
2021/05/25 21:20:12;;;;;;;0.10;0.10;;;;;;;21.58;48.58;101216.97;146710;594;46010;-83
2021/05/25 21:22:42;;;;;;;;;;;;;;;21.56;48.39;101216.22;146717;979;46021;-82
2021/05/25 21:25:13;;;;;;;0.10;0.10;;;;;;;21.53;48.85;101216.41;146715;577;46014;-82
2021/05/25 21:27:44;;;;;;;0.10;0.10;;;;;;;21.51;48.95;101215.63;146712;614;46010;-82
2021/05/25 21:30:19;;;;;;;0.10;0.10;;;;;;;21.47;48.48;101223.84;146707;582;46016;-82
2021/05/25 21:32:59;;;;;;;0.40;0.30;;;;;;;21.43;48.69;101225.03;146712;618;46020;-83
2021/05/25 21:35:29;;;;;;;0.17;0.17;;;;;;;21.39;48.28;101218.16;146707;635;46012;-82
2021/05/25 21:38:00;;;;;;;0.00;0.00;;;;;;;21.36;48.59;101218.34;146712;604;45021;-83
2021/05/25 21:40:31;;;;;;;0.00;0.00;;;;;;;21.32;48.85;101210.66;146708;595;46012;-83
2021/05/25 21:43:02;;;;;;;0.25;0.25;;;;;;;21.29;49.04;101214.38;146713;638;46020;-83
2021/05/25 21:45:33;;;;;;;0.10;0.10;;;;;;;21.25;48.95;101215.53;146708;601;46020;-83
2021/05/25 21:48:04;;;;;;;0.00;0.00;;;;;;;21.23;48.42;101214.78;146711;584;46020;-82
2021/05/25 21:50:35;;;;;;;0.00;0.00;;;;;;;21.20;48.60;101207.84;146707;578;46015;-80
2021/05/25 21:53:05;;;;;;;0.00;0.00;;;;;;;21.19;49.19;101221.28;146714;597;45905;-81
2021/05/25 21:55:36;;;;;;;0.15;0.15;;;;;;;21.15;48.49;101215.28;146708;621;46016;-82
2021/05/25 21:58:09;;;;;;;0.10;0.10;;;;;;;21.16;48.47;101210.78;146711;624;46021;-82
2021/05/25 22:00:40;;;;;;;0.00;0.00;;;;;;;21.14;48.57;101202.87;146710;620;46014;-82
2021/05/25 22:03:10;;;;;;;0.03;0.03;;;;;;;21.12;48.75;101200.31;146715;609;46010;-82
2021/05/25 22:05:41;;;;;;;0.05;0.05;;;;;;;21.11;48.74;101195.91;146709;598;46015;-81
2021/05/25 22:08:11;;;;;;;0.10;0.10;;;;;;;21.09;49.02;101189.84;146710;619;46021;-82
2021/05/25 22:10:43;;;;;;;0.10;0.10;;;;;;;21.07;48.37;101197.06;146708;569;46012;-82
2021/05/25 22:13:14;;;;;;;0.00;0.00;;;;;;;21.03;48.75;101194.72;146711;578;46020;-82
2021/05/25 22:15:44;;;;;;;0.00;0.00;;;;;;;21.03;48.39;101198.22;146707;572;46017;-82
2021/05/25 22:18:15;;;;;;;0.32;0.10;;;;;;;21.00;48.65;101195.75;146713;594;46020;-82
2021/05/25 22:20:49;;;;;;;0.00;0.00;;;;;;;20.97;48.72;101198.63;146710;599;46012;-82
2021/05/25 22:23:19;;;;;;;;;;;;;;;20.95;49.12;101198.75;146717;974;46020;-81
2021/05/25 22:25:50;;;;;;;0.52;0.50;;;;;;;20.93;48.79;101191.78;146713;751;46016;-82
2021/05/25 22:28:21;;;;;;;0.17;0.17;;;;;;;20.89;49.20;101184.94;146710;573;46020;-82
2021/05/25 22:30:51;;;;;;;0.00;0.00;;;;;;;20.86;49.04;101187.78;146709;635;46010;-82
2021/05/25 22:33:22;;;;;;;0.10;0.10;;;;;;;20.83;48.58;101185.31;146711;613;47008;-82
2021/05/25 22:35:52;;;;;;;0.00;0.00;;;;;;;20.82;48.92;101183.59;146709;591;46016;-82
2021/05/25 22:38:23;;;;;;;0.15;0.10;;;;;;;20.77;49.04;101183.88;146710;612;46021;-81
2021/05/25 22:40:54;;;;;;;0.00;0.00;;;;;;;20.76;48.72;101179.50;146707;619;46016;-82
2021/05/25 22:43:24;;;;;;;0.10;0.10;;;;;;;20.73;49.58;101171.69;146713;583;46020;-82
2021/05/25 22:45:55;;;;;;;0.00;0.00;;;;;;;20.70;49.12;101164.75;146708;581;46016;-81
2021/05/25 22:48:26;;;;;;;0.13;0.13;;;;;;;20.69;49.17;101164.84;146713;569;45020;-82
2021/05/25 22:50:57;;;;;;;0.10;0.10;;;;;;;20.66;49.34;101160.53;146708;590;46032;-82
2021/05/25 22:53:30;;;;;;;0.10;0.10;;;;;;;20.65;48.95;101158.81;146714;569;46021;-82
2021/05/25 22:56:01;;;;;;;0.10;0.10;;;;;;;20.63;49.10;101158.06;146708;600;47020;-82
2021/05/25 22:58:31;;;;;;;0.22;0.10;;;;;;;20.61;49.20;101163.50;146714;600;46010;-83
2021/05/25 23:01:02;;;;;;;0.55;0.47;;;;;;;20.59;49.63;101160.06;146708;574;46010;-82
2021/05/25 23:03:33;;;;;;;0.08;0.08;;;;;;;20.58;49.04;101154.81;146708;585;46020;-82
2021/05/25 23:06:04;;;;;;;0.10;0.10;;;;;;;20.54;49.22;101146.13;146706;592;46017;-82
2021/05/25 23:08:35;;;;;;;0.00;0.00;;;;;;;20.55;49.19;101152.34;146713;586;45020;-82
2021/05/25 23:11:05;;;;;;;0.40;0.17;;;;;;;20.54;49.30;101151.47;146710;592;45016;-82
2021/05/25 23:13:36;;;;;;;0.05;0.05;;;;;;;20.54;49.03;101146.13;146710;569;46008;-82
2021/05/25 23:16:07;;;;;;;0.10;0.10;;;;;;;20.55;49.17;101150.53;146706;594;46016;-82
2021/05/25 23:18:38;;;;;;;0.05;0.05;;;;;;;20.57;49.20;101145.09;146712;580;46018;-83
2021/05/25 23:21:09;;;;;;;0.10;0.10;;;;;;;20.58;49.23;101149.47;146707;578;46016;-82
2021/05/25 23:23:40;;;;;;;0.00;0.00;;;;;;;20.58;48.89;101147.66;146711;565;45904;-83
2021/05/25 23:26:10;;;;;;;0.05;0.05;;;;;;;20.58;49.41;101149.47;146709;615;46014;-82
2021/05/25 23:28:41;;;;;;;0.00;0.00;;;;;;;20.58;49.16;101144.16;146714;582;46008;-82
2021/05/25 23:31:11;;;;;;;0.10;0.10;;;;;;;20.57;49.21;101143.31;146708;656;46010;-82
2021/05/25 23:33:42;;;;;;;0.30;0.15;;;;;;;20.57;49.20;101150.44;146711;588;46020;-81
2021/05/25 23:36:13;;;;;;;0.10;0.10;;;;;;;20.55;49.50;101145.19;146708;634;46017;-82
2021/05/25 23:38:43;;;;;;;0.00;0.00;;;;;;;20.54;48.80;101140.81;146709;565;46020;-83
2021/05/25 23:41:14;;;;;;;0.00;0.00;;;;;;;20.54;49.55;101137.28;146705;584;46016;-82
2021/05/25 23:43:44;;;;;;;0.00;0.00;;;;;;;20.52;48.91;101136.56;146713;570;46009;-82
2021/05/25 23:46:15;;;;;;;0.20;0.17;;;;;;;20.50;48.65;101135.78;146709;589;46016;-83
2021/05/25 23:48:46;;;;;;;0.47;0.10;;;;;;;20.46;48.86;101127.97;146710;587;46020;-83
2021/05/25 23:51:17;;;;;;;0.98;0.35;;;;;;;20.44;49.37;101121.87;146708;613;46014;-82
2021/05/25 23:53:47;;;;;;;0.00;0.00;;;;;;;20.41;49.14;101122.06;146712;687;46008;-82
2021/05/25 23:56:18;;;;;;;0.05;0.05;;;;;;;20.39;49.46;101110.63;146707;589;47010;-81
2021/05/25 23:58:48;;;;;;;0.90;0.20;;;;;;;20.39;49.60;101117.78;146708;581;46021;-81
